Durham, NC

10:19 AM EDT on August 03, 2015 (GMT -0400)
KNCDURHA18 | | Change Station
CLOSE
Current Station
Personal Weather Station
Location: Durham, NC
Elevation: 413 ft
Nearby Weather Stations

Elev 413 ft 36.00 °N, 78.90 °W | Updated 53 minutes ago

Partly Cloudy
Partly Cloudy
77.4 °F
Feels Like 79 °F
N
2.0
Wind Variable Wind from WSW
Gusts 2.0 mph

Today
High -- | Low -- °F
--% Chance of Precip.
Yesterday
High -- | Low -- °F
Precip. -- in
6:24 AM 8:18 PM
Waning Gibbous, 86% visible
Pressure 29.94 in
Visibility 10.0 miles
Clouds Scattered Clouds 1300 ft
Scattered Clouds 25000 ft
Heat Index 79 °F
Dew Point 71 °F
Humidity 81%
Rainfall in
Snow Depth Not available.
UV 4 out of 12
Pollen 4.40 out of 12
Air Quality Not available.
Flu Activity Not available.
METAR KRDU 031351Z 24005KT 10SM SCT013 SCT250 27/23 A2995 RMK AO2 SLP137 T02720228

More Conditions Fewer Conditions

Pressure 29.94 in
Visibility 10.0 miles
Clouds Scattered Clouds 1300 ft
Scattered Clouds 25000 ft
Heat Index 79 °F
Dew Point 71 °F
Humidity 81%
Rainfall in
Snow Depth Not available.
UV 4 out of 12
Pollen 4.40 out of 12
Air Quality Not available.
Flu Activity Not available.
METAR KRDU 031351Z 24005KT 10SM SCT013 SCT250 27/23 A2995 RMK AO2 SLP137 T02720228

More Conditions Fewer Conditions

10-Day Weather Forecast

×

Almanac

Astronomy

Aug. 03, 2015 Rise Set
Actual Time
Civil Twilight
Nautical Twilight
Astronomical Twilight
Moon
Length of Visible Light
Length of Day
Tomorrow will be .
, % of the Moon is Illuminated

Today's Extremes

State Highs State Lows

Community

WunderPhotos

Upload Photos

1,843,636 photos uploaded!

WunderBlogs® & News

Nearby

Air Quality

  Air Quality AQ Index Pollutant
Not available.

Snow Depth

Station Depth Elevation

Earthquake Activity

City Distance Mag. Time & Date
Minimum magnitude displayed is 2.5.

Coastal Water Temperatures

Place Temperature

Stations

Nearby Weather Stations

Station Location Temp. Windchill Dew Point Humidity Wind Precip. Elev Updated Type